Latest Weather Observations for Hogan Island

IDV60801

Issued at 10:12 pm EST Thursday 20 June 2019 (issued every 10 minutes, with the page automatically refreshed every 10 minutes)

About weather observations | Map of weather stations | Latest weather observations for VIC | Other Formats
Station Details ID: 200838 Name: HOGAN ISLAND Lat: -39.22 Lon: 146.98 Height: 116.0 m
Data from the previous 72 hours. | See also: Recent months at Hogan Island
Date/Time
EST
Temp
°C
App
Temp
°C
Dew
Point
°C
Rel
Hum
%
Delta-T
°C
Wind Press
QNH
hPa
Press
MSL
hPa
Rain since
9am
mm
Dir  Spd
km/h
Gust
km/h
Spd
kts
Gust
kts
20/10:00pm 10.3 2.7 5.7 73 2.1 SW 35 41 19 22 1023.2 - 0.0
20/09:30pm 9.8 1.7 5.2 73 2.1 SW 37 46 20 25 1023.2 - 0.0
20/09:00pm 9.5 2.2 5.3 75 1.9 SW 33 44 18 24 1023.3 1023.4 0.0
20/08:30pm 9.2 1.4 5.0 75 1.9 SW 35 43 19 23 1023.3 - 0.0
20/08:00pm 9.2 1.2 5.8 79 1.6 SW 37 43 20 23 1023.2 - 0.0
20/07:30pm 9.3 2.2 6.4 82 1.4 SW 33 41 18 22 1023.1 - 0.0
20/07:00pm 9.1 1.5 5.7 79 1.6 SW 35 41 19 22 1022.9 - 0.0
20/06:30pm 9.3 1.7 6.0 80 1.5 WSW 35 43 19 23 1022.6 - 0.0
20/06:00pm 9.4 2.4 6.1 80 1.5 WSW 32 41 17 22 1022.5 1022.6 0.0
20/05:30pm 9.1 2.0 5.3 77 1.7 SW 32 39 17 21 1022.5 - 0.0
20/05:00pm 9.1 3.4 4.9 75 1.9 WSW 24 28 13 15 1022.3 - 0.0
20/04:30pm 9.9 4.7 5.5 74 2.0 WSW 22 30 12 16 1022.4 - 0.0
20/04:00pm 9.9 4.3 5.3 73 2.1 SW 24 28 13 15 1022.3 - 0.0
20/03:30pm 10.9 4.7 6.1 72 2.3 SW 28 32 15 17 1022.3 - 0.0
20/03:00pm 10.7 4.1 5.9 72 2.2 SW 30 39 16 21 1022.1 1022.2 0.0
20/02:30pm 11.2 5.5 6.5 73 2.2 SSW 26 32 14 17 1022.1 - 0.0
20/02:00pm 10.3 4.2 6.6 78 1.7 SSW 28 39 15 21 1022.2 - 0.0
20/01:55pm 10.3 4.2 6.6 78 1.7 SSW 28 39 15 21 1022.2 - 0.0
20/01:30pm 10.6 6.8 7.7 82 1.4 WNW 17 19 9 10 1022.4 - 0.0
20/01:00pm 9.6 3.4 6.3 80 1.5 W 28 35 15 19 1022.6 - 0.0
20/12:30pm 12.2 7.7 6.3 67 2.8 WSW 19 24 10 13 1023.0 - 0.0
20/12:00pm 11.6 7.1 5.9 68 2.7 W 19 22 10 12 1023.5 1023.6 0.0
20/11:30am 11.5 7.4 6.0 69 2.6 W 17 22 9 12 1023.8 - 0.0
20/11:00am 11.5 7.8 4.7 63 3.1 WSW 13 17 7 9 1024.0 - 0.0
20/10:30am 11.2 7.2 4.7 64 3.0 WSW 15 20 8 11 1024.1 - 0.0
20/10:00am 10.9 7.2 4.6 65 2.9 WSW 13 17 7 9 1024.2 - 0.0
20/09:30am 10.3 5.9 4.7 68 2.5 W 17 20 9 11 1024.1 - 0.0
20/09:00am 9.1 5.1 2.9 65 2.6 WSW 13 19 7 10 1024.1 1024.2 0.0
20/08:30am 8.8 4.1 3.4 69 2.3 WSW 17 20 9 11 1024.2 - 0.0
20/08:00am 8.6 3.1 3.8 72 2.1 W 22 32 12 17 1024.1 - 0.0
20/07:30am 8.6 2.6 3.4 70 2.2 W 24 32 13 17 1024.0 - 0.0
20/07:00am 8.8 2.8 3.4 69 2.3 W 24 30 13 16 1023.8 - 0.0
20/06:30am 9.1 2.8 3.9 70 2.3 WSW 26 32 14 17 1023.6 - 0.0
20/06:00am 8.9 2.2 3.7 70 2.3 WSW 28 35 15 19 1023.4 1023.5 0.0
20/05:30am 8.8 2.4 3.2 68 2.4 WSW 26 35 14 19 1023.4 - 0.0
20/05:00am 8.9 2.6 3.5 69 2.3 WSW 26 32 14 17 1023.3 - 0.0
20/04:30am 8.8 2.1 3.4 69 2.3 WSW 28 33 15 18 1023.3 - 0.0
20/04:00am 9.1 2.1 4.1 71 2.2 WSW 30 35 16 19 1023.3 - 0.0
20/03:30am 9.1 2.8 3.7 69 2.4 SW 26 33 14 18 1023.6 - 0.0
20/03:00am 9.0 1.9 3.6 69 2.3 WSW 30 35 16 19 1023.9 1024.0 0.0
20/02:30am 9.0 1.9 3.8 70 2.3 WSW 30 35 16 19 1024.0 - 0.0
20/02:00am 9.1 2.4 3.9 70 2.3 WSW 28 33 15 18 1023.9 - 0.0
20/01:30am 9.2 2.6 4.4 72 2.1 SW 28 35 15 19 1023.9 - 0.0
20/01:00am 9.4 3.0 5.0 74 2.0 SW 28 35 15 19 1023.9 - 0.0
20/12:30am 9.7 2.9 5.1 73 2.1 SW 30 35 16 19 1024.0 - 0.0
20/12:00am 9.9 3.9 5.1 72 2.2 SW 26 30 14 16 1024.2 1024.3 0.0
 
Date/Time
EST
Temp
°C
App
Temp
°C
Dew
Point
°C
Rel
Hum
%
Delta-T
°C
Wind Press
QNH
hPa
Press
MSL
hPa
Rain since
9am
mm
Dir  Spd
km/h
Gust
km/h
Spd
kts
Gust
kts
19/11:30pm 9.7 2.5 5.1 73 2.1 SW 32 35 17 19 1024.1 - 0.0
19/11:00pm 10.0 3.7 5.8 75 1.9 SW 28 37 15 20 1024.1 - 0.0
19/10:30pm 9.8 3.1 5.6 75 1.9 SW 30 35 16 19 1024.1 - 0.0
19/10:00pm 9.8 3.1 5.4 74 2.0 SW 30 35 16 19 1024.1 - 0.0
19/09:30pm 9.8 2.6 6.0 77 1.8 SW 33 41 18 22 1024.0 - 0.0
19/09:00pm 9.4 2.3 5.6 77 1.7 SW 32 43 17 23 1024.2 1024.3 0.0
19/08:30pm 9.7 2.0 5.5 75 1.9 SW 35 43 19 23 1024.1 - 0.0
19/08:00pm 9.9 2.8 5.7 75 1.9 SW 32 37 17 20 1024.2 - 0.0
19/07:30pm 9.3 0.8 5.3 76 1.8 SW 39 54 21 29 1024.2 - 0.0
19/07:00pm 9.6 1.9 5.2 74 2.0 SW 35 43 19 23 1024.1 - 0.0
19/06:30pm 9.8 1.7 5.2 73 2.1 SW 37 43 20 23 1024.0 - 0.0
19/06:00pm 9.7 0.8 5.3 74 2.0 SW 41 48 22 26 1023.8 1023.9 0.0
19/05:30pm 9.7 -0.1 5.1 73 2.1 SW 46 57 25 31 1023.4 - 0.0
19/05:00pm 9.8 0.0 5.2 73 2.1 SW 46 59 25 32 1023.2 - 0.0
19/04:30pm 9.8 0.5 4.8 71 2.3 SW 43 54 23 29 1023.2 - 0.0
19/04:00pm 10.2 0.9 4.8 69 2.4 WSW 43 54 23 29 1023.0 - 0.0
19/03:30pm 10.3 0.0 4.7 68 2.5 WSW 48 57 26 31 1022.8 - 0.0
19/03:00pm 10.5 -0.1 5.1 69 2.5 WSW 50 61 27 33 1022.6 1022.7 0.0
19/02:30pm 10.9 0.3 5.2 68 2.6 WSW 50 57 27 31 1022.4 - 0.0
19/02:00pm 11.2 0.7 5.7 69 2.6 WSW 50 57 27 31 1022.2 - 0.0
19/01:30pm 11.1 0.0 4.6 64 3.0 WSW 52 61 28 33 1022.1 - 0.0
19/01:00pm 11.2 0.1 4.7 64 3.0 WSW 52 61 28 33 1022.2 - 0.0
19/12:30pm 10.8 -0.4 4.0 63 3.0 WSW 52 61 28 33 1022.2 - 0.0
19/12:00pm 11.2 -0.2 4.9 65 2.9 WSW 54 63 29 34 1022.3 1022.4 0.0
19/11:30am 11.1 0.0 4.6 64 3.0 WSW 52 63 28 34 1022.7 - 0.0
19/11:00am 10.2 -0.1 4.6 68 2.5 WSW 48 59 26 32 1022.9 - 0.0
19/10:30am 11.0 0.4 4.9 66 2.8 WSW 50 59 27 32 1022.8 - 0.0
19/10:00am 10.1 -1.1 4.0 66 2.7 WSW 52 61 28 33 1022.4 - 0.0
19/09:30am 10.2 -0.4 5.0 70 2.4 WSW 50 63 27 34 1022.1 - 0.0
19/09:00am 10.0 -0.6 5.2 72 2.2 WSW 50 59 27 32 1021.8 1021.9 0.8
19/08:30am 9.9 -1.5 5.1 72 2.2 WSW 54 63 29 34 1021.3 - 0.8
19/08:00am 9.8 -1.3 4.6 70 2.3 WSW 52 61 28 33 1021.0 - 0.8
19/07:30am 9.7 -0.4 5.5 75 1.9 SW 48 59 26 32 1020.7 - 0.8
19/07:00am 9.7 -1.7 4.9 72 2.2 WSW 54 63 29 34 1020.3 - 0.8
19/06:30am 9.8 -1.9 5.2 73 2.1 WSW 56 63 30 34 1019.9 - 0.8
19/06:00am 9.8 -2.0 5.0 72 2.2 WSW 56 65 30 35 1019.5 1019.7 0.8
19/05:30am 9.8 -2.9 5.0 72 2.2 WSW 61 69 33 37 1019.0 - 0.8
19/05:00am 10.0 -3.0 5.6 74 2.0 WSW 63 72 34 39 1018.6 - 0.8
19/04:30am 9.9 -3.4 5.7 75 1.9 WSW 65 74 35 40 1018.4 - 0.8
19/04:00am 10.0 -3.3 6.0 76 1.9 WSW 65 74 35 40 1018.2 - 0.8
19/03:30am 9.9 -3.4 5.9 76 1.9 WSW 65 74 35 40 1018.0 - 0.8
19/03:00am 9.9 -3.3 6.4 79 1.6 WSW 65 72 35 39 1018.0 1018.2 0.8
19/02:30am 9.9 -3.3 6.1 77 1.8 WSW 65 74 35 40 1017.9 - 0.8
19/02:00am 10.0 -2.8 6.2 77 1.8 WSW 63 69 34 37 1017.9 - 0.8
19/01:30am 9.8 -3.4 6.3 79 1.6 WSW 65 74 35 40 1017.6 - 0.8
19/01:00am 9.3 -3.4 6.7 84 1.2 WSW 63 80 34 43 1017.3 - 0.8
19/12:30am 9.9 -3.0 6.1 77 1.8 WSW 63 74 34 40 1017.3 - 0.8
19/12:00am 9.8 -3.1 6.0 77 1.8 W 63 72 34 39 1017.4 1017.5 0.8
 
Date/Time
EST
Temp
°C
App
Temp
°C
Dew
Point
°C
Rel
Hum
%
Delta-T
°C
Wind Press
QNH
hPa
Press
MSL
hPa
Rain since
9am
mm
Dir  Spd
km/h
Gust
km/h
Spd
kts
Gust
kts
18/11:30pm 9.4 -3.1 5.9 79 1.6 W 61 74 33 40 1017.6 - 0.8
18/11:00pm 9.5 -3.4 5.9 78 1.7 W 63 72 34 39 1017.4 - 0.8
18/10:30pm 9.4 -4.4 5.2 75 1.9 W 67 78 36 42 1017.2 - 0.8
18/10:00pm 9.7 -4.3 6.2 79 1.6 W 69 78 37 42 1017.0 - 0.8
18/09:30pm 9.9 -2.6 6.1 77 1.8 WSW 61 70 33 38 1017.0 - 0.8
18/09:00pm 9.7 -2.3 6.6 81 1.5 WSW 59 72 32 39 1016.8 1016.9 0.6
18/08:50pm 9.4 -0.8 7.0 85 1.1 WSW 50 61 27 33 1017.0 - 0.6
18/08:46pm 9.1 -1.6 6.5 84 1.2 W 52 70 28 38 1017.1 - 0.6
18/08:30pm 9.6 -0.7 6.3 80 1.5 WNW 50 59 27 32 1017.0 - 0.6
18/08:00pm 9.9 -3.7 6.4 79 1.6 W 67 82 36 44 1016.2 - 0.6
18/07:56pm 9.8 -2.7 6.2 78 1.7 W 61 82 33 44 1016.3 - 0.6
18/07:30pm 10.7 -0.9 6.6 76 1.9 WSW 57 65 31 35 1016.4 - 0.6
18/07:00pm 10.3 -1.1 6.6 78 1.7 W 56 67 30 36 1016.0 - 0.6
18/06:30pm 10.1 -2.7 8.0 87 1.0 WSW 65 78 35 42 1015.8 - 0.6
18/06:00pm 9.2 -1.9 8.0 92 0.6 WSW 56 67 30 36 1015.7 1015.8 0.6
18/05:30pm 10.4 -0.6 8.5 88 0.9 W 56 65 30 35 1015.2 - 0.6
18/05:00pm 10.4 -0.1 8.8 90 0.8 WSW 54 61 29 33 1014.6 - 0.6
18/04:30pm 10.2 0.7 9.7 97 0.3 WSW 50 67 27 36 1014.2 - 0.6
18/04:00pm 10.1 0.2 9.9 99 0.1 W 52 57 28 31 1013.7 - 0.6
18/03:41pm 10.1 1.4 9.9 99 0.1 W 46 65 25 35 1013.4 - 0.6
18/03:30pm 9.9 2.9 9.8 99 0.1 W 37 43 20 23 1013.8 - 0.6
18/03:07pm 9.1 1.5 9.0 99 0.0 W 39 65 21 35 1013.6 - 0.6
18/03:00pm 9.2 -2.6 8.9 98 0.1 W 61 74 33 40 1013.5 1013.6 0.2
18/02:30pm 11.3 -2.1 8.7 84 1.3 WNW 69 80 37 43 1012.4 - 0.0
18/02:00pm 11.0 -1.4 8.2 83 1.4 WNW 63 76 34 41 1012.5 - 0.0
18/01:30pm 11.7 -1.7 8.6 81 1.5 WNW 69 82 37 44 1012.6 - 0.0
18/01:00pm 11.9 0.0 8.6 80 1.6 WNW 61 74 33 40 1013.0 - 0.0
18/12:30pm 12.1 1.5 8.4 78 1.8 NW 54 67 29 36 1013.5 - 0.0
18/12:22pm 11.9 0.3 8.4 79 1.7 WNW 59 78 32 42 1013.4 - 0.0
18/12:00pm 12.2 0.6 8.3 77 1.9 WNW 59 74 32 40 1013.7 1013.8 0.0
18/11:30am 13.0 3.6 8.7 75 2.2 NW 48 67 26 36 1014.4 - 0.0
18/11:28am 12.8 3.3 8.5 75 2.2 NW 48 67 26 36 1014.3 - 0.0
18/11:00am 13.0 4.4 8.7 75 2.2 NW 44 56 24 30 1014.7 - 0.0
18/10:30am 12.7 4.0 7.8 72 2.4 NNW 43 57 23 31 1014.9 - 0.0
18/10:10am 12.6 6.4 7.9 73 2.3 NNW 30 48 16 26 1015.0 - 0.0
18/10:00am 12.4 6.2 7.9 74 2.2 NNW 30 44 16 24 1015.0 - 0.0
18/09:30am 12.8 6.2 7.7 71 2.5 N 32 50 17 27 1015.0 - 0.0
18/09:00am 12.6 5.7 7.3 70 2.6 NNW 33 52 18 28 1015.0 1015.1 0.0
18/08:52am 12.6 5.8 7.7 72 2.4 NNW 33 52 18 28 1015.0 - 0.0
18/08:30am 12.4 5.3 8.1 75 2.1 NNW 35 46 19 25 1014.9 - 0.0
18/08:00am 12.4 4.5 7.7 73 2.3 NNW 39 48 21 26 1015.0 - 0.0
18/07:30am 12.2 4.4 8.1 76 2.0 NW 39 46 21 25 1015.2 - 0.0
18/07:00am 11.8 5.1 7.5 75 2.1 NNW 32 39 17 21 1015.4 - 0.0
18/06:30am 11.9 5.1 7.0 72 2.4 NNW 32 41 17 22 1015.6 - 0.0
18/06:00am 12.3 6.4 7.4 72 2.4 NNW 28 39 15 21 1015.6 1015.7 0.0
18/05:30am 12.3 7.1 7.4 72 2.4 NNW 24 35 13 19 1015.6 - 0.0
18/05:00am 12.3 7.6 7.6 73 2.3 NNW 22 33 12 18 1015.7 - 0.0
18/04:30am 12.3 7.3 8.0 75 2.1 NNW 24 33 13 18 1016.1 - 0.0
18/04:00am 12.0 5.8 7.9 76 2.0 NW 30 33 16 18 1016.4 - 0.0
18/03:30am 12.0 7.2 8.8 81 1.6 NNW 24 32 13 17 1016.8 - 0.0
18/03:00am 12.0 8.3 10.2 89 0.9 NNW 20 30 11 16 1017.1 - -
18/02:30am 11.9 7.9 10.5 91 0.7 N 22 30 12 16 1017.3 - 0.0
18/02:00am 11.7 7.3 10.3 91 0.7 N 24 33 13 18 1017.5 - 0.0
18/01:30am 11.7 6.5 10.4 92 0.7 N 28 37 15 20 1017.7 - 0.0
18/01:00am 11.7 5.6 9.9 89 0.9 N 32 39 17 21 1017.8 - 0.0
18/12:30am 11.6 5.9 9.7 88 1.0 N 30 37 16 20 1018.0 - 0.0
18/12:00am 11.7 5.8 10.4 92 0.7 N 32 41 17 22 1018.4 1018.6 0.0
 
Date/Time
EST
Temp
°C
App
Temp
°C
Dew
Point
°C
Rel
Hum
%
Delta-T
°C
Wind Press
QNH
hPa
Press
MSL
hPa
Rain since
9am
mm
Dir  Spd
km/h
Gust
km/h
Spd
kts
Gust
kts
17/11:30pm 11.8 5.7 10.4 91 0.7 N 33 43 18 23 1018.8 - 0.0
17/11:00pm 11.8 5.4 10.7 93 0.6 N 35 43 19 23 1019.0 - 0.0
17/10:30pm 11.8 6.6 11.6 99 0.1 N 30 37 16 20 1019.2 - 0.0

Other formats

Comma delimited format used in spreadsheet applications
http://www.bom.gov.au/fwo/IDV60801/IDV60801.94949.axf

JavaScript Object Notation format (JSON) in row-major order
http://www.bom.gov.au/fwo/IDV60801/IDV60801.94949.json

Data quality

Most of these data are generated automatically and are frequently updated. Quality checks on data are not normally performed. It is possible for incorrect values to appear. Refer to information at About Latest Weather Observations and please check the disclaimer before using these data.